sensor_id;sensor_type;location;lat;lon;timestamp;P1;durP1;ratioP1;P2;durP2;ratioP2
20649;SDS011;10484;48.736;9.332;2023-08-21T00:01:30;5.87;;;5.47;;
20649;SDS011;10484;48.736;9.332;2023-08-21T00:03:55;5.80;;;5.40;;
20649;SDS011;10484;48.736;9.332;2023-08-21T00:06:21;6.33;;;5.70;;
20649;SDS011;10484;48.736;9.332;2023-08-21T00:08:47;6.10;;;5.70;;
20649;SDS011;10484;48.736;9.332;2023-08-21T00:11:12;6.80;;;6.23;;
20649;SDS011;10484;48.736;9.332;2023-08-21T00:13:38;6.37;;;5.87;;
20649;SDS011;10484;48.736;9.332;2023-08-21T00:16:03;6.33;;;5.83;;
20649;SDS011;10484;48.736;9.332;2023-08-21T00:18:29;6.40;;;5.90;;
20649;SDS011;10484;48.736;9.332;2023-08-21T00:20:55;5.60;;;5.20;;
20649;SDS011;10484;48.736;9.332;2023-08-21T00:23:20;5.70;;;5.33;;
20649;SDS011;10484;48.736;9.332;2023-08-21T00:25:46;6.10;;;5.70;;
20649;SDS011;10484;48.736;9.332;2023-08-21T00:28:12;6.13;;;5.63;;
20649;SDS011;10484;48.736;9.332;2023-08-21T00:30:38;5.77;;;5.27;;
20649;SDS011;10484;48.736;9.332;2023-08-21T00:33:04;6.00;;;5.60;;
20649;SDS011;10484;48.736;9.332;2023-08-21T00:35:29;5.90;;;5.50;;
20649;SDS011;10484;48.736;9.332;2023-08-21T00:37:55;6.63;;;6.13;;
20649;SDS011;10484;48.736;9.332;2023-08-21T00:40:20;6.03;;;5.53;;
20649;SDS011;10484;48.736;9.332;2023-08-21T00:42:46;6.37;;;5.87;;
20649;SDS011;10484;48.736;9.332;2023-08-21T00:45:11;6.50;;;6.00;;
20649;SDS011;10484;48.736;9.332;2023-08-21T00:47:37;6.80;;;6.20;;
20649;SDS011;10484;48.736;9.332;2023-08-21T00:50:03;5.70;;;5.13;;
20649;SDS011;10484;48.736;9.332;2023-08-21T00:52:31;6.23;;;5.83;;
20649;SDS011;10484;48.736;9.332;2023-08-21T00:54:58;6.20;;;5.70;;
20649;SDS011;10484;48.736;9.332;2023-08-21T00:57:24;6.73;;;6.23;;
20649;SDS011;10484;48.736;9.332;2023-08-21T00:59:50;5.93;;;5.43;;
20649;SDS011;10484;48.736;9.332;2023-08-21T01:02:16;6.10;;;5.70;;
20649;SDS011;10484;48.736;9.332;2023-08-21T01:04:44;6.00;;;5.50;;
20649;SDS011;10484;48.736;9.332;2023-08-21T01:07:09;6.57;;;6.07;;
20649;SDS011;10484;48.736;9.332;2023-08-21T01:12:25;6.87;;;6.30;;
20649;SDS011;10484;48.736;9.332;2023-08-21T01:17:33;6.33;;;5.83;;
20649;SDS011;10484;48.736;9.332;2023-08-21T01:20:01;5.80;;;5.40;;
20649;SDS011;10484;48.736;9.332;2023-08-21T01:22:34;5.47;;;5.07;;
20649;SDS011;10484;48.736;9.332;2023-08-21T01:25:01;7.27;;;5.53;;
20649;SDS011;10484;48.736;9.332;2023-08-21T01:27:27;6.60;;;6.00;;
20649;SDS011;10484;48.736;9.332;2023-08-21T01:29:53;7.17;;;6.57;;
20649;SDS011;10484;48.736;9.332;2023-08-21T01:35:25;6.60;;;5.57;;
20649;SDS011;10484;48.736;9.332;2023-08-21T01:37:52;6.50;;;5.90;;
20649;SDS011;10484;48.736;9.332;2023-08-21T01:40:22;6.63;;;6.13;;
20649;SDS011;10484;48.736;9.332;2023-08-21T01:42:48;6.50;;;6.00;;
20649;SDS011;10484;48.736;9.332;2023-08-21T01:45:14;5.90;;;5.40;;
20649;SDS011;10484;48.736;9.332;2023-08-21T01:47:40;6.20;;;5.70;;
20649;SDS011;10484;48.736;9.332;2023-08-21T01:50:06;6.00;;;5.60;;
20649;SDS011;10484;48.736;9.332;2023-08-21T01:52:32;6.47;;;5.97;;
20649;SDS011;10484;48.736;9.332;2023-08-21T01:54:57;6.47;;;5.93;;
20649;SDS011;10484;48.736;9.332;2023-08-21T01:57:23;6.80;;;6.20;;
20649;SDS011;10484;48.736;9.332;2023-08-21T01:59:49;6.53;;;6.03;;
20649;SDS011;10484;48.736;9.332;2023-08-21T02:02:14;6.60;;;6.10;;
20649;SDS011;10484;48.736;9.332;2023-08-21T02:04:40;6.57;;;6.00;;
20649;SDS011;10484;48.736;9.332;2023-08-21T02:07:05;6.43;;;5.93;;
20649;SDS011;10484;48.736;9.332;2023-08-21T02:09:32;6.40;;;5.80;;
20649;SDS011;10484;48.736;9.332;2023-08-21T02:11:58;6.43;;;5.93;;
20649;SDS011;10484;48.736;9.332;2023-08-21T02:14:23;6.63;;;6.13;;
20649;SDS011;10484;48.736;9.332;2023-08-21T02:16:49;6.70;;;6.17;;
20649;SDS011;10484;48.736;9.332;2023-08-21T02:19:14;6.60;;;6.10;;
20649;SDS011;10484;48.736;9.332;2023-08-21T02:21:40;6.50;;;6.00;;
20649;SDS011;10484;48.736;9.332;2023-08-21T02:24:06;6.73;;;6.10;;
20649;SDS011;10484;48.736;9.332;2023-08-21T02:26:31;6.77;;;6.27;;
20649;SDS011;10484;48.736;9.332;2023-08-21T02:28:57;6.50;;;6.00;;
20649;SDS011;10484;48.736;9.332;2023-08-21T02:31:23;6.57;;;6.17;;
20649;SDS011;10484;48.736;9.332;2023-08-21T02:33:48;7.37;;;6.80;;
20649;SDS011;10484;48.736;9.332;2023-08-21T02:36:15;6.33;;;5.93;;
20649;SDS011;10484;48.736;9.332;2023-08-21T02:38:41;6.50;;;6.00;;
20649;SDS011;10484;48.736;9.332;2023-08-21T02:41:06;6.43;;;5.97;;
20649;SDS011;10484;48.736;9.332;2023-08-21T02:43:32;6.17;;;5.77;;
20649;SDS011;10484;48.736;9.332;2023-08-21T02:45:58;7.03;;;6.53;;
20649;SDS011;10484;48.736;9.332;2023-08-21T02:48:24;6.20;;;5.80;;
20649;SDS011;10484;48.736;9.332;2023-08-21T02:50:49;6.37;;;5.87;;
20649;SDS011;10484;48.736;9.332;2023-08-21T02:53:15;6.63;;;6.17;;
20649;SDS011;10484;48.736;9.332;2023-08-21T02:55:40;6.80;;;6.30;;
20649;SDS011;10484;48.736;9.332;2023-08-21T02:58:06;6.40;;;5.90;;
20649;SDS011;10484;48.736;9.332;2023-08-21T03:00:31;6.37;;;5.83;;
20649;SDS011;10484;48.736;9.332;2023-08-21T03:02:57;6.80;;;6.30;;
20649;SDS011;10484;48.736;9.332;2023-08-21T03:05:23;7.53;;;6.93;;
20649;SDS011;10484;48.736;9.332;2023-08-21T03:07:48;6.30;;;5.83;;
20649;SDS011;10484;48.736;9.332;2023-08-21T03:10:14;6.43;;;5.93;;
20649;SDS011;10484;48.736;9.332;2023-08-21T03:12:39;7.20;;;6.50;;
20649;SDS011;10484;48.736;9.332;2023-08-21T03:15:05;6.87;;;6.30;;
20649;SDS011;10484;48.736;9.332;2023-08-21T03:17:32;6.80;;;6.30;;
20649;SDS011;10484;48.736;9.332;2023-08-21T03:19:57;5.97;;;5.57;;
20649;SDS011;10484;48.736;9.332;2023-08-21T03:22:23;6.10;;;5.63;;
20649;SDS011;10484;48.736;9.332;2023-08-21T03:24:48;6.20;;;5.80;;
20649;SDS011;10484;48.736;9.332;2023-08-21T03:27:18;6.80;;;6.27;;
20649;SDS011;10484;48.736;9.332;2023-08-21T03:29:43;6.33;;;5.83;;
20649;SDS011;10484;48.736;9.332;2023-08-21T03:32:13;6.90;;;6.30;;
20649;SDS011;10484;48.736;9.332;2023-08-21T03:34:40;6.93;;;6.43;;
20649;SDS011;10484;48.736;9.332;2023-08-21T03:37:06;7.20;;;6.50;;
20649;SDS011;10484;48.736;9.332;2023-08-21T03:39:31;6.03;;;5.63;;
20649;SDS011;10484;48.736;9.332;2023-08-21T03:41:58;6.27;;;5.80;;
20649;SDS011;10484;48.736;9.332;2023-08-21T03:44:23;6.10;;;5.67;;
20649;SDS011;10484;48.736;9.332;2023-08-21T03:46:49;6.50;;;6.00;;
20649;SDS011;10484;48.736;9.332;2023-08-21T03:49:14;6.70;;;5.67;;
20649;SDS011;10484;48.736;9.332;2023-08-21T03:51:40;6.90;;;6.30;;
20649;SDS011;10484;48.736;9.332;2023-08-21T03:54:05;6.63;;;6.07;;
20649;SDS011;10484;48.736;9.332;2023-08-21T03:56:31;6.43;;;5.93;;
20649;SDS011;10484;48.736;9.332;2023-08-21T03:58:57;6.37;;;5.90;;
20649;SDS011;10484;48.736;9.332;2023-08-21T04:01:22;6.20;;;5.70;;
20649;SDS011;10484;48.736;9.332;2023-08-21T04:03:48;6.47;;;5.97;;
20649;SDS011;10484;48.736;9.332;2023-08-21T04:06:14;6.83;;;6.40;;
20649;SDS011;10484;48.736;9.332;2023-08-21T04:08:39;6.40;;;5.90;;
20649;SDS011;10484;48.736;9.332;2023-08-21T04:11:06;6.17;;;5.67;;
20649;SDS011;10484;48.736;9.332;2023-08-21T04:13:31;6.63;;;6.03;;
20649;SDS011;10484;48.736;9.332;2023-08-21T04:15:57;6.47;;;5.97;;
20649;SDS011;10484;48.736;9.332;2023-08-21T04:18:23;6.93;;;6.27;;
20649;SDS011;10484;48.736;9.332;2023-08-21T04:20:49;6.90;;;6.30;;
20649;SDS011;10484;48.736;9.332;2023-08-21T04:23:14;6.43;;;6.03;;
20649;SDS011;10484;48.736;9.332;2023-08-21T04:25:40;6.90;;;6.40;;
20649;SDS011;10484;48.736;9.332;2023-08-21T04:28:06;6.70;;;6.10;;
20649;SDS011;10484;48.736;9.332;2023-08-21T04:30:32;6.07;;;5.57;;
20649;SDS011;10484;48.736;9.332;2023-08-21T04:32:58;6.20;;;5.80;;
20649;SDS011;10484;48.736;9.332;2023-08-21T04:35:24;5.73;;;5.30;;
20649;SDS011;10484;48.736;9.332;2023-08-21T04:37:50;7.70;;;6.60;;
20649;SDS011;10484;48.736;9.332;2023-08-21T04:40:16;6.10;;;5.70;;
20649;SDS011;10484;48.736;9.332;2023-08-21T04:42:45;6.53;;;5.93;;
20649;SDS011;10484;48.736;9.332;2023-08-21T04:45:10;6.73;;;6.13;;
20649;SDS011;10484;48.736;9.332;2023-08-21T04:47:36;6.23;;;5.77;;
20649;SDS011;10484;48.736;9.332;2023-08-21T04:50:01;7.07;;;6.37;;
20649;SDS011;10484;48.736;9.332;2023-08-21T04:52:27;7.00;;;6.30;;
20649;SDS011;10484;48.736;9.332;2023-08-21T04:54:53;7.17;;;6.57;;
20649;SDS011;10484;48.736;9.332;2023-08-21T04:57:19;7.47;;;6.77;;
20649;SDS011;10484;48.736;9.332;2023-08-21T04:59:46;6.00;;;5.60;;
20649;SDS011;10484;48.736;9.332;2023-08-21T05:02:12;6.30;;;5.80;;
20649;SDS011;10484;48.736;9.332;2023-08-21T05:04:38;6.57;;;6.07;;
20649;SDS011;10484;48.736;9.332;2023-08-21T05:07:03;6.13;;;5.63;;
20649;SDS011;10484;48.736;9.332;2023-08-21T05:09:30;6.43;;;5.93;;
20649;SDS011;10484;48.736;9.332;2023-08-21T05:11:56;6.30;;;5.90;;
20649;SDS011;10484;48.736;9.332;2023-08-21T05:14:22;7.00;;;6.30;;
20649;SDS011;10484;48.736;9.332;2023-08-21T05:16:48;6.77;;;6.27;;
20649;SDS011;10484;48.736;9.332;2023-08-21T05:19:14;6.40;;;5.90;;
20649;SDS011;10484;48.736;9.332;2023-08-21T05:21:40;6.80;;;6.30;;
20649;SDS011;10484;48.736;9.332;2023-08-21T05:24:05;6.80;;;6.30;;
20649;SDS011;10484;48.736;9.332;2023-08-21T05:26:31;7.23;;;6.53;;
20649;SDS011;10484;48.736;9.332;2023-08-21T05:28:56;6.93;;;6.40;;
20649;SDS011;10484;48.736;9.332;2023-08-21T05:31:22;6.30;;;5.90;;
20649;SDS011;10484;48.736;9.332;2023-08-21T05:33:48;6.57;;;6.17;;
20649;SDS011;10484;48.736;9.332;2023-08-21T05:36:13;6.80;;;6.20;;
20649;SDS011;10484;48.736;9.332;2023-08-21T05:38:39;7.23;;;6.63;;
20649;SDS011;10484;48.736;9.332;2023-08-21T05:41:04;6.00;;;5.60;;
20649;SDS011;10484;48.736;9.332;2023-08-21T05:43:30;6.53;;;6.03;;
20649;SDS011;10484;48.736;9.332;2023-08-21T05:45:56;6.77;;;6.27;;
20649;SDS011;10484;48.736;9.332;2023-08-21T05:48:21;6.93;;;6.33;;
20649;SDS011;10484;48.736;9.332;2023-08-21T05:50:50;6.80;;;6.20;;
20649;SDS011;10484;48.736;9.332;2023-08-21T05:53:19;6.73;;;6.23;;
20649;SDS011;10484;48.736;9.332;2023-08-21T05:55:44;6.73;;;6.20;;
20649;SDS011;10484;48.736;9.332;2023-08-21T05:58:10;8.43;;;7.80;;
20649;SDS011;10484;48.736;9.332;2023-08-21T06:00:37;8.47;;;7.60;;
20649;SDS011;10484;48.736;9.332;2023-08-21T06:03:04;7.37;;;6.87;;
20649;SDS011;10484;48.736;9.332;2023-08-21T06:05:29;7.33;;;6.70;;
20649;SDS011;10484;48.736;9.332;2023-08-21T06:07:55;7.40;;;6.90;;
20649;SDS011;10484;48.736;9.332;2023-08-21T06:10:21;7.80;;;7.17;;
20649;SDS011;10484;48.736;9.332;2023-08-21T06:12:47;7.83;;;7.23;;
20649;SDS011;10484;48.736;9.332;2023-08-21T06:15:13;7.27;;;6.77;;
20649;SDS011;10484;48.736;9.332;2023-08-21T06:17:39;8.30;;;7.60;;
20649;SDS011;10484;48.736;9.332;2023-08-21T06:20:07;6.83;;;6.23;;
20649;SDS011;10484;48.736;9.332;2023-08-21T06:22:36;10.50;;;8.83;;
20649;SDS011;10484;48.736;9.332;2023-08-21T06:25:02;8.60;;;7.90;;
20649;SDS011;10484;48.736;9.332;2023-08-21T06:27:28;8.27;;;7.67;;
20649;SDS011;10484;48.736;9.332;2023-08-21T06:29:54;8.80;;;8.10;;
20649;SDS011;10484;48.736;9.332;2023-08-21T06:32:19;8.53;;;7.83;;
20649;SDS011;10484;48.736;9.332;2023-08-21T06:34:45;7.27;;;6.77;;
20649;SDS011;10484;48.736;9.332;2023-08-21T06:37:10;9.40;;;8.60;;
20649;SDS011;10484;48.736;9.332;2023-08-21T06:39:37;7.43;;;6.93;;
20649;SDS011;10484;48.736;9.332;2023-08-21T06:42:03;8.50;;;7.80;;
20649;SDS011;10484;48.736;9.332;2023-08-21T06:44:29;7.30;;;6.80;;
20649;SDS011;10484;48.736;9.332;2023-08-21T06:46:55;7.67;;;6.97;;
20649;SDS011;10484;48.736;9.332;2023-08-21T06:49:20;7.53;;;6.83;;
20649;SDS011;10484;48.736;9.332;2023-08-21T06:51:46;8.40;;;7.60;;
20649;SDS011;10484;48.736;9.332;2023-08-21T06:54:11;8.17;;;7.43;;
20649;SDS011;10484;48.736;9.332;2023-08-21T06:56:37;8.17;;;7.50;;
20649;SDS011;10484;48.736;9.332;2023-08-21T06:59:03;10.17;;;9.37;;
20649;SDS011;10484;48.736;9.332;2023-08-21T07:01:28;7.60;;;7.00;;
20649;SDS011;10484;48.736;9.332;2023-08-21T07:03:54;9.03;;;8.33;;
20649;SDS011;10484;48.736;9.332;2023-08-21T07:06:20;8.90;;;8.00;;
20649;SDS011;10484;48.736;9.332;2023-08-21T07:08:45;8.93;;;8.23;;
20649;SDS011;10484;48.736;9.332;2023-08-21T07:11:11;7.10;;;6.60;;
20649;SDS011;10484;48.736;9.332;2023-08-21T07:13:37;7.27;;;6.77;;
20649;SDS011;10484;48.736;9.332;2023-08-21T07:16:03;9.47;;;8.77;;
20649;SDS011;10484;48.736;9.332;2023-08-21T07:18:33;8.60;;;7.90;;
20649;SDS011;10484;48.736;9.332;2023-08-21T07:21:00;8.13;;;7.43;;
20649;SDS011;10484;48.736;9.332;2023-08-21T07:23:26;7.37;;;6.80;;
20649;SDS011;10484;48.736;9.332;2023-08-21T07:25:52;7.70;;;7.10;;
20649;SDS011;10484;48.736;9.332;2023-08-21T07:28:18;7.80;;;7.10;;
20649;SDS011;10484;48.736;9.332;2023-08-21T07:30:43;7.40;;;6.90;;
20649;SDS011;10484;48.736;9.332;2023-08-21T07:33:09;8.40;;;7.80;;
20649;SDS011;10484;48.736;9.332;2023-08-21T07:35:35;7.80;;;7.20;;
20649;SDS011;10484;48.736;9.332;2023-08-21T07:38:01;8.30;;;7.60;;
20649;SDS011;10484;48.736;9.332;2023-08-21T07:40:26;8.27;;;7.67;;
20649;SDS011;10484;48.736;9.332;2023-08-21T07:42:52;8.00;;;7.47;;
20649;SDS011;10484;48.736;9.332;2023-08-21T07:45:18;8.57;;;7.90;;
20649;SDS011;10484;48.736;9.332;2023-08-21T07:47:43;8.77;;;8.07;;
20649;SDS011;10484;48.736;9.332;2023-08-21T07:50:09;8.07;;;7.57;;
20649;SDS011;10484;48.736;9.332;2023-08-21T07:52:35;7.40;;;6.73;;
20649;SDS011;10484;48.736;9.332;2023-08-21T07:55:01;8.90;;;8.10;;
20649;SDS011;10484;48.736;9.332;2023-08-21T07:57:28;8.20;;;7.60;;
20649;SDS011;10484;48.736;9.332;2023-08-21T07:59:54;8.30;;;7.60;;
20649;SDS011;10484;48.736;9.332;2023-08-21T08:02:20;7.53;;;7.00;;
20649;SDS011;10484;48.736;9.332;2023-08-21T08:04:46;7.83;;;7.23;;
20649;SDS011;10484;48.736;9.332;2023-08-21T08:07:12;8.80;;;8.00;;
20649;SDS011;10484;48.736;9.332;2023-08-21T08:09:38;8.57;;;7.70;;
20649;SDS011;10484;48.736;9.332;2023-08-21T08:12:04;8.20;;;7.50;;
20649;SDS011;10484;48.736;9.332;2023-08-21T08:14:30;8.73;;;8.07;;
20649;SDS011;10484;48.736;9.332;2023-08-21T08:16:55;8.50;;;7.90;;
20649;SDS011;10484;48.736;9.332;2023-08-21T08:19:21;7.90;;;7.30;;
20649;SDS011;10484;48.736;9.332;2023-08-21T08:21:46;7.80;;;7.10;;
20649;SDS011;10484;48.736;9.332;2023-08-21T08:24:12;8.57;;;7.67;;
20649;SDS011;10484;48.736;9.332;2023-08-21T08:26:38;8.40;;;7.70;;
20649;SDS011;10484;48.736;9.332;2023-08-21T08:29:04;8.03;;;7.33;;
20649;SDS011;10484;48.736;9.332;2023-08-21T08:31:30;7.83;;;7.13;;
20649;SDS011;10484;48.736;9.332;2023-08-21T08:33:56;7.53;;;7.00;;
20649;SDS011;10484;48.736;9.332;2023-08-21T08:36:21;8.20;;;7.60;;
20649;SDS011;10484;48.736;9.332;2023-08-21T08:38:47;7.07;;;6.53;;
20649;SDS011;10484;48.736;9.332;2023-08-21T08:41:25;8.03;;;7.40;;
20649;SDS011;10484;48.736;9.332;2023-08-21T08:44:03;7.40;;;6.90;;
20649;SDS011;10484;48.736;9.332;2023-08-21T08:46:29;8.87;;;8.10;;
20649;SDS011;10484;48.736;9.332;2023-08-21T08:48:56;7.97;;;7.37;;
20649;SDS011;10484;48.736;9.332;2023-08-21T08:51:22;9.33;;;7.77;;
20649;SDS011;10484;48.736;9.332;2023-08-21T08:53:49;7.90;;;7.20;;
20649;SDS011;10484;48.736;9.332;2023-08-21T08:56:15;8.60;;;7.80;;
20649;SDS011;10484;48.736;9.332;2023-08-21T08:58:41;8.07;;;7.47;;
20649;SDS011;10484;48.736;9.332;2023-08-21T09:01:07;8.40;;;7.60;;
20649;SDS011;10484;48.736;9.332;2023-08-21T09:03:35;8.33;;;7.73;;
20649;SDS011;10484;48.736;9.332;2023-08-21T09:06:01;7.80;;;7.20;;
20649;SDS011;10484;48.736;9.332;2023-08-21T09:08:28;8.70;;;8.00;;
20649;SDS011;10484;48.736;9.332;2023-08-21T09:10:54;7.80;;;7.20;;
20649;SDS011;10484;48.736;9.332;2023-08-21T09:13:20;7.63;;;6.93;;
20649;SDS011;10484;48.736;9.332;2023-08-21T09:15:47;8.33;;;7.53;;
20649;SDS011;10484;48.736;9.332;2023-08-21T09:18:13;8.03;;;7.37;;
20649;SDS011;10484;48.736;9.332;2023-08-21T09:20:40;7.83;;;7.23;;
20649;SDS011;10484;48.736;9.332;2023-08-21T09:23:06;8.67;;;7.80;;
20649;SDS011;10484;48.736;9.332;2023-08-21T09:25:37;7.83;;;7.30;;
20649;SDS011;10484;48.736;9.332;2023-08-21T09:28:04;7.33;;;6.80;;
20649;SDS011;10484;48.736;9.332;2023-08-21T09:30:36;8.60;;;8.00;;
20649;SDS011;10484;48.736;9.332;2023-08-21T09:33:18;8.70;;;8.10;;
20649;SDS011;10484;48.736;9.332;2023-08-21T09:35:46;8.03;;;7.47;;
20649;SDS011;10484;48.736;9.332;2023-08-21T09:38:12;8.30;;;7.50;;
20649;SDS011;10484;48.736;9.332;2023-08-21T09:40:43;7.67;;;7.17;;
20649;SDS011;10484;48.736;9.332;2023-08-21T09:43:14;7.20;;;6.70;;
20649;SDS011;10484;48.736;9.332;2023-08-21T09:45:40;8.10;;;7.50;;
20649;SDS011;10484;48.736;9.332;2023-08-21T09:48:06;7.63;;;7.10;;
20649;SDS011;10484;48.736;9.332;2023-08-21T09:50:32;8.07;;;7.20;;
20649;SDS011;10484;48.736;9.332;2023-08-21T09:52:58;7.10;;;6.53;;
20649;SDS011;10484;48.736;9.332;2023-08-21T09:55:24;7.13;;;6.60;;
20649;SDS011;10484;48.736;9.332;2023-08-21T09:57:56;7.03;;;6.40;;
20649;SDS011;10484;48.736;9.332;2023-08-21T10:00:30;6.77;;;6.27;;
20649;SDS011;10484;48.736;9.332;2023-08-21T10:02:59;5.97;;;5.57;;
20649;SDS011;10484;48.736;9.332;2023-08-21T10:05:27;6.63;;;5.93;;
20649;SDS011;10484;48.736;9.332;2023-08-21T10:07:54;6.30;;;5.80;;
20649;SDS011;10484;48.736;9.332;2023-08-21T10:10:20;6.77;;;6.27;;
20649;SDS011;10484;48.736;9.332;2023-08-21T10:12:47;6.37;;;5.87;;
20649;SDS011;10484;48.736;9.332;2023-08-21T10:15:13;7.37;;;6.70;;
20649;SDS011;10484;48.736;9.332;2023-08-21T10:17:41;7.30;;;6.80;;
20649;SDS011;10484;48.736;9.332;2023-08-21T10:20:08;7.10;;;6.27;;
20649;SDS011;10484;48.736;9.332;2023-08-21T10:22:44;6.60;;;5.90;;
20649;SDS011;10484;48.736;9.332;2023-08-21T10:25:17;6.50;;;6.00;;
20649;SDS011;10484;48.736;9.332;2023-08-21T10:27:57;6.57;;;6.07;;
20649;SDS011;10484;48.736;9.332;2023-08-21T10:30:28;6.00;;;5.50;;
20649;SDS011;10484;48.736;9.332;2023-08-21T10:32:56;6.53;;;5.93;;
20649;SDS011;10484;48.736;9.332;2023-08-21T10:35:24;6.23;;;5.63;;
20649;SDS011;10484;48.736;9.332;2023-08-21T10:43:41;5.90;;;5.37;;
20649;SDS011;10484;48.736;9.332;2023-08-21T10:46:08;6.73;;;6.23;;
20649;SDS011;10484;48.736;9.332;2023-08-21T10:48:38;7.17;;;6.57;;
20649;SDS011;10484;48.736;9.332;2023-08-21T10:51:05;6.40;;;5.90;;
20649;SDS011;10484;48.736;9.332;2023-08-21T10:53:37;6.37;;;5.97;;
20649;SDS011;10484;48.736;9.332;2023-08-21T10:56:05;7.47;;;6.70;;
20649;SDS011;10484;48.736;9.332;2023-08-21T10:58:34;6.27;;;5.77;;
20649;SDS011;10484;48.736;9.332;2023-08-21T11:01:03;7.20;;;6.70;;
20649;SDS011;10484;48.736;9.332;2023-08-21T11:03:28;6.83;;;6.23;;
20649;SDS011;10484;48.736;9.332;2023-08-21T11:06:03;6.20;;;5.80;;
20649;SDS011;10484;48.736;9.332;2023-08-21T11:08:33;5.80;;;5.30;;
20649;SDS011;10484;48.736;9.332;2023-08-21T11:11:01;6.77;;;6.27;;
20649;SDS011;10484;48.736;9.332;2023-08-21T11:13:27;5.60;;;5.03;;
20649;SDS011;10484;48.736;9.332;2023-08-21T11:16:03;6.27;;;5.87;;
20649;SDS011;10484;48.736;9.332;2023-08-21T11:18:30;6.90;;;6.20;;
20649;SDS011;10484;48.736;9.332;2023-08-21T11:21:03;6.57;;;6.07;;
20649;SDS011;10484;48.736;9.332;2023-08-21T11:23:33;6.80;;;6.20;;
20649;SDS011;10484;48.736;9.332;2023-08-21T11:26:00;6.50;;;6.00;;
20649;SDS011;10484;48.736;9.332;2023-08-21T11:28:28;6.90;;;5.63;;
20649;SDS011;10484;48.736;9.332;2023-08-21T11:30:57;6.30;;;5.80;;
20649;SDS011;10484;48.736;9.332;2023-08-21T11:33:24;6.50;;;6.00;;
20649;SDS011;10484;48.736;9.332;2023-08-21T11:35:51;7.60;;;7.00;;
20649;SDS011;10484;48.736;9.332;2023-08-21T11:38:20;6.47;;;5.97;;
20649;SDS011;10484;48.736;9.332;2023-08-21T11:43:22;7.20;;;5.87;;
20649;SDS011;10484;48.736;9.332;2023-08-21T11:46:00;6.60;;;6.07;;
20649;SDS011;10484;48.736;9.332;2023-08-21T11:48:29;7.50;;;6.90;;
20649;SDS011;10484;48.736;9.332;2023-08-21T11:50:55;6.57;;;6.07;;
20649;SDS011;10484;48.736;9.332;2023-08-21T11:53:36;7.77;;;7.07;;
20649;SDS011;10484;48.736;9.332;2023-08-21T11:56:10;6.63;;;6.13;;
20649;SDS011;10484;48.736;9.332;2023-08-21T11:58:40;7.43;;;6.77;;
20649;SDS011;10484;48.736;9.332;2023-08-21T12:01:07;8.50;;;6.27;;
20649;SDS011;10484;48.736;9.332;2023-08-21T12:03:36;7.60;;;6.90;;
20649;SDS011;10484;48.736;9.332;2023-08-21T12:06:07;7.67;;;6.47;;
20649;SDS011;10484;48.736;9.332;2023-08-21T12:08:33;6.77;;;6.13;;
20649;SDS011;10484;48.736;9.332;2023-08-21T12:10:59;6.73;;;6.13;;
20649;SDS011;10484;48.736;9.332;2023-08-21T12:13:25;7.37;;;6.70;;
20649;SDS011;10484;48.736;9.332;2023-08-21T12:15:50;6.83;;;6.33;;
20649;SDS011;10484;48.736;9.332;2023-08-21T12:18:16;6.57;;;6.07;;
20649;SDS011;10484;48.736;9.332;2023-08-21T12:20:41;6.90;;;6.40;;
20649;SDS011;10484;48.736;9.332;2023-08-21T12:23:07;7.00;;;6.53;;
20649;SDS011;10484;48.736;9.332;2023-08-21T12:25:32;6.50;;;6.00;;
20649;SDS011;10484;48.736;9.332;2023-08-21T12:27:58;6.53;;;6.03;;
20649;SDS011;10484;48.736;9.332;2023-08-21T12:30:24;6.83;;;6.23;;
20649;SDS011;10484;48.736;9.332;2023-08-21T12:32:50;6.00;;;5.50;;
20649;SDS011;10484;48.736;9.332;2023-08-21T12:35:15;7.27;;;6.67;;
20649;SDS011;10484;48.736;9.332;2023-08-21T12:37:41;6.63;;;6.13;;
20649;SDS011;10484;48.736;9.332;2023-08-21T12:40:07;6.83;;;6.30;;
20649;SDS011;10484;48.736;9.332;2023-08-21T12:42:33;6.97;;;6.37;;
20649;SDS011;10484;48.736;9.332;2023-08-21T12:44:59;7.23;;;6.70;;
20649;SDS011;10484;48.736;9.332;2023-08-21T12:47:24;6.70;;;6.23;;
20649;SDS011;10484;48.736;9.332;2023-08-21T12:49:50;6.90;;;6.40;;
20649;SDS011;10484;48.736;9.332;2023-08-21T12:52:16;6.60;;;6.00;;
20649;SDS011;10484;48.736;9.332;2023-08-21T12:54:42;6.70;;;6.20;;
20649;SDS011;10484;48.736;9.332;2023-08-21T12:57:08;7.20;;;6.60;;
20649;SDS011;10484;48.736;9.332;2023-08-21T12:59:36;6.50;;;5.90;;
20649;SDS011;10484;48.736;9.332;2023-08-21T13:02:02;6.40;;;5.87;;
20649;SDS011;10484;48.736;9.332;2023-08-21T13:04:28;7.03;;;6.40;;
20649;SDS011;10484;48.736;9.332;2023-08-21T13:06:54;6.40;;;6.00;;
20649;SDS011;10484;48.736;9.332;2023-08-21T13:09:19;7.00;;;6.50;;
20649;SDS011;10484;48.736;9.332;2023-08-21T13:11:45;6.87;;;6.37;;
20649;SDS011;10484;48.736;9.332;2023-08-21T13:14:11;8.67;;;7.27;;
20649;SDS011;10484;48.736;9.332;2023-08-21T13:16:36;6.63;;;6.13;;
20649;SDS011;10484;48.736;9.332;2023-08-21T13:19:02;7.30;;;6.70;;
20649;SDS011;10484;48.736;9.332;2023-08-21T13:21:27;8.17;;;6.30;;
20649;SDS011;10484;48.736;9.332;2023-08-21T13:23:53;6.90;;;6.30;;
20649;SDS011;10484;48.736;9.332;2023-08-21T13:26:19;7.20;;;6.60;;
20649;SDS011;10484;48.736;9.332;2023-08-21T13:28:44;7.07;;;6.67;;
20649;SDS011;10484;48.736;9.332;2023-08-21T13:31:10;7.17;;;6.70;;
20649;SDS011;10484;48.736;9.332;2023-08-21T13:33:49;6.60;;;6.20;;
20649;SDS011;10484;48.736;9.332;2023-08-21T13:36:16;7.00;;;6.23;;
20649;SDS011;10484;48.736;9.332;2023-08-21T13:38:43;7.13;;;6.50;;
20649;SDS011;10484;48.736;9.332;2023-08-21T13:41:09;7.27;;;6.57;;
20649;SDS011;10484;48.736;9.332;2023-08-21T13:43:36;7.50;;;6.80;;
20649;SDS011;10484;48.736;9.332;2023-08-21T13:46:01;6.97;;;6.23;;
20649;SDS011;10484;48.736;9.332;2023-08-21T13:48:30;8.50;;;6.60;;
20649;SDS011;10484;48.736;9.332;2023-08-21T13:50:56;6.80;;;6.13;;
20649;SDS011;10484;48.736;9.332;2023-08-21T13:53:22;7.20;;;6.60;;
20649;SDS011;10484;48.736;9.332;2023-08-21T13:55:49;6.83;;;6.10;;
20649;SDS011;10484;48.736;9.332;2023-08-21T13:58:15;6.93;;;6.43;;
20649;SDS011;10484;48.736;9.332;2023-08-21T14:00:41;6.20;;;5.80;;
20649;SDS011;10484;48.736;9.332;2023-08-21T14:03:06;6.73;;;6.23;;
20649;SDS011;10484;48.736;9.332;2023-08-21T14:05:32;6.83;;;6.33;;
20649;SDS011;10484;48.736;9.332;2023-08-21T14:07:58;6.80;;;6.33;;
20649;SDS011;10484;48.736;9.332;2023-08-21T14:10:24;6.20;;;5.70;;
20649;SDS011;10484;48.736;9.332;2023-08-21T14:12:50;7.33;;;6.70;;
20649;SDS011;10484;48.736;9.332;2023-08-21T14:15:16;6.70;;;6.10;;
20649;SDS011;10484;48.736;9.332;2023-08-21T14:17:43;6.50;;;6.00;;
20649;SDS011;10484;48.736;9.332;2023-08-21T14:20:09;6.90;;;6.30;;
20649;SDS011;10484;48.736;9.332;2023-08-21T14:22:36;6.53;;;5.90;;
20649;SDS011;10484;48.736;9.332;2023-08-21T14:25:02;6.20;;;5.70;;
20649;SDS011;10484;48.736;9.332;2023-08-21T14:27:30;7.30;;;6.47;;
20649;SDS011;10484;48.736;9.332;2023-08-21T14:29:56;7.13;;;6.60;;
20649;SDS011;10484;48.736;9.332;2023-08-21T14:32:22;6.33;;;5.83;;
20649;SDS011;10484;48.736;9.332;2023-08-21T14:34:48;5.60;;;5.10;;
20649;SDS011;10484;48.736;9.332;2023-08-21T14:37:14;5.77;;;5.17;;
20649;SDS011;10484;48.736;9.332;2023-08-21T14:39:41;5.77;;;5.37;;
20649;SDS011;10484;48.736;9.332;2023-08-21T14:42:08;6.70;;;6.10;;
20649;SDS011;10484;48.736;9.332;2023-08-21T14:44:33;6.73;;;6.23;;
20649;SDS011;10484;48.736;9.332;2023-08-21T14:46:59;7.30;;;6.70;;
20649;SDS011;10484;48.736;9.332;2023-08-21T14:49:24;6.40;;;6.00;;
20649;SDS011;10484;48.736;9.332;2023-08-21T14:51:50;6.37;;;5.97;;
20649;SDS011;10484;48.736;9.332;2023-08-21T14:54:16;6.57;;;6.07;;
20649;SDS011;10484;48.736;9.332;2023-08-21T14:56:42;6.07;;;5.57;;
20649;SDS011;10484;48.736;9.332;2023-08-21T14:59:08;5.77;;;5.37;;
20649;SDS011;10484;48.736;9.332;2023-08-21T15:01:36;6.37;;;5.77;;